sensor_id;sensor_type;location;lat;lon;timestamp;temperature;humidity
14006;DHT22;7078;51.542;7.314;2023-04-05T00:01:08;3.80;99.90
14006;DHT22;7078;51.542;7.314;2023-04-05T00:03:33;3.80;99.90
14006;DHT22;7078;51.542;7.314;2023-04-05T00:05:59;3.70;99.90
14006;DHT22;7078;51.542;7.314;2023-04-05T00:08:27;3.70;99.90
14006;DHT22;7078;51.542;7.314;2023-04-05T00:10:53;3.70;99.90
14006;DHT22;7078;51.542;7.314;2023-04-05T00:13:19;3.60;99.90
14006;DHT22;7078;51.542;7.314;2023-04-05T00:15:45;3.60;99.90
14006;DHT22;7078;51.542;7.314;2023-04-05T00:18:11;3.50;99.90
14006;DHT22;7078;51.542;7.314;2023-04-05T00:20:52;3.50;99.90
14006;DHT22;7078;51.542;7.314;2023-04-05T00:23:18;3.40;99.90
14006;DHT22;7078;51.542;7.314;2023-04-05T00:25:45;3.40;99.90
14006;DHT22;7078;51.542;7.314;2023-04-05T00:28:11;3.30;99.90
14006;DHT22;7078;51.542;7.314;2023-04-05T00:30:37;3.30;99.90
14006;DHT22;7078;51.542;7.314;2023-04-05T00:33:03;3.20;99.90
14006;DHT22;7078;51.542;7.314;2023-04-05T00:35:29;3.20;99.90
14006;DHT22;7078;51.542;7.314;2023-04-05T00:37:55;3.10;99.90
14006;DHT22;7078;51.542;7.314;2023-04-05T00:40:21;3.10;99.90
14006;DHT22;7078;51.542;7.314;2023-04-05T00:42:47;3.00;99.90
14006;DHT22;7078;51.542;7.314;2023-04-05T00:45:13;3.00;99.90
14006;DHT22;7078;51.542;7.314;2023-04-05T00:47:40;2.90;99.90
14006;DHT22;7078;51.542;7.314;2023-04-05T00:50:07;2.90;99.90
14006;DHT22;7078;51.542;7.314;2023-04-05T00:52:34;2.80;99.90
14006;DHT22;7078;51.542;7.314;2023-04-05T00:55:03;2.80;99.90
14006;DHT22;7078;51.542;7.314;2023-04-05T00:57:30;2.70;99.90
14006;DHT22;7078;51.542;7.314;2023-04-05T00:59:58;2.70;99.90
14006;DHT22;7078;51.542;7.314;2023-04-05T01:02:34;2.60;99.90
14006;DHT22;7078;51.542;7.314;2023-04-05T01:05:10;2.60;99.90
14006;DHT22;7078;51.542;7.314;2023-04-05T01:07:45;2.70;99.90
14006;DHT22;7078;51.542;7.314;2023-04-05T01:10:16;2.50;99.90
14006;DHT22;7078;51.542;7.314;2023-04-05T01:12:42;2.50;99.90
14006;DHT22;7078;51.542;7.314;2023-04-05T01:15:09;2.50;99.90
14006;DHT22;7078;51.542;7.314;2023-04-05T01:17:35;2.40;99.90
14006;DHT22;7078;51.542;7.314;2023-04-05T01:20:09;2.30;99.90
14006;DHT22;7078;51.542;7.314;2023-04-05T01:33:32;2.10;99.90
14006;DHT22;7078;51.542;7.314;2023-04-05T01:38:42;2.00;99.90
14006;DHT22;7078;51.542;7.314;2023-04-05T01:41:10;2.10;99.90
14006;DHT22;7078;51.542;7.314;2023-04-05T01:43:36;1.90;99.90
14006;DHT22;7078;51.542;7.314;2023-04-05T01:46:01;1.90;99.90
14006;DHT22;7078;51.542;7.314;2023-04-05T01:48:27;1.90;99.90
14006;DHT22;7078;51.542;7.314;2023-04-05T01:50:52;1.80;99.90
14006;DHT22;7078;51.542;7.314;2023-04-05T01:53:18;1.80;99.90
14006;DHT22;7078;51.542;7.314;2023-04-05T01:55:43;1.70;99.90
14006;DHT22;7078;51.542;7.314;2023-04-05T01:58:09;1.70;99.90
14006;DHT22;7078;51.542;7.314;2023-04-05T02:00:34;1.70;99.90
14006;DHT22;7078;51.542;7.314;2023-04-05T02:03:00;1.60;99.90
14006;DHT22;7078;51.542;7.314;2023-04-05T02:05:26;1.60;99.90
14006;DHT22;7078;51.542;7.314;2023-04-05T02:07:51;1.60;99.90
14006;DHT22;7078;51.542;7.314;2023-04-05T02:10:17;1.60;99.90
14006;DHT22;7078;51.542;7.314;2023-04-05T02:12:43;1.50;99.90
14006;DHT22;7078;51.542;7.314;2023-04-05T02:15:09;1.50;99.90
14006;DHT22;7078;51.542;7.314;2023-04-05T02:17:35;1.50;99.90
14006;DHT22;7078;51.542;7.314;2023-04-05T02:20:06;1.40;99.90
14006;DHT22;7078;51.542;7.314;2023-04-05T02:22:32;1.40;99.90
14006;DHT22;7078;51.542;7.314;2023-04-05T02:24:57;1.30;99.90
14006;DHT22;7078;51.542;7.314;2023-04-05T02:27:23;1.30;99.90
14006;DHT22;7078;51.542;7.314;2023-04-05T02:29:48;1.20;99.90
14006;DHT22;7078;51.542;7.314;2023-04-05T02:32:14;1.20;99.90
14006;DHT22;7078;51.542;7.314;2023-04-05T02:34:40;1.20;99.90
14006;DHT22;7078;51.542;7.314;2023-04-05T02:37:06;1.20;99.90
14006;DHT22;7078;51.542;7.314;2023-04-05T02:39:31;1.20;99.90
14006;DHT22;7078;51.542;7.314;2023-04-05T02:41:57;1.20;99.90
14006;DHT22;7078;51.542;7.314;2023-04-05T02:44:23;1.20;99.90
14006;DHT22;7078;51.542;7.314;2023-04-05T02:46:49;1.20;99.90
14006;DHT22;7078;51.542;7.314;2023-04-05T02:49:15;1.20;99.90
14006;DHT22;7078;51.542;7.314;2023-04-05T02:51:40;1.10;99.90
14006;DHT22;7078;51.542;7.314;2023-04-05T02:54:06;1.20;99.90
14006;DHT22;7078;51.542;7.314;2023-04-05T02:56:31;1.10;99.90
14006;DHT22;7078;51.542;7.314;2023-04-05T02:58:57;1.10;99.90
14006;DHT22;7078;51.542;7.314;2023-04-05T03:01:22;1.00;99.90
14006;DHT22;7078;51.542;7.314;2023-04-05T03:03:48;1.00;99.90
14006;DHT22;7078;51.542;7.314;2023-04-05T03:06:14;0.90;99.90
14006;DHT22;7078;51.542;7.314;2023-04-05T03:08:41;0.90;99.90
14006;DHT22;7078;51.542;7.314;2023-04-05T03:11:09;0.90;99.90
14006;DHT22;7078;51.542;7.314;2023-04-05T03:13:35;0.90;99.90
14006;DHT22;7078;51.542;7.314;2023-04-05T03:16:01;0.90;99.90
14006;DHT22;7078;51.542;7.314;2023-04-05T03:18:27;0.90;99.90
14006;DHT22;7078;51.542;7.314;2023-04-05T03:20:54;0.90;99.90
14006;DHT22;7078;51.542;7.314;2023-04-05T03:23:25;0.90;99.90
14006;DHT22;7078;51.542;7.314;2023-04-05T03:26:00;0.90;99.90
14006;DHT22;7078;51.542;7.314;2023-04-05T03:28:28;0.90;99.90
14006;DHT22;7078;51.542;7.314;2023-04-05T03:30:54;0.80;99.90
14006;DHT22;7078;51.542;7.314;2023-04-05T03:33:20;0.80;99.90
14006;DHT22;7078;51.542;7.314;2023-04-05T03:35:46;0.90;99.90
14006;DHT22;7078;51.542;7.314;2023-04-05T03:38:12;0.80;99.90
14006;DHT22;7078;51.542;7.314;2023-04-05T03:40:38;0.70;99.90
14006;DHT22;7078;51.542;7.314;2023-04-05T03:43:04;0.70;99.90
14006;DHT22;7078;51.542;7.314;2023-04-05T03:45:29;0.80;99.90
14006;DHT22;7078;51.542;7.314;2023-04-05T03:47:56;0.70;99.90
14006;DHT22;7078;51.542;7.314;2023-04-05T03:50:21;0.70;99.90
14006;DHT22;7078;51.542;7.314;2023-04-05T03:52:47;0.70;99.90
14006;DHT22;7078;51.542;7.314;2023-04-05T03:55:13;0.70;99.90
14006;DHT22;7078;51.542;7.314;2023-04-05T03:57:41;0.70;99.90
14006;DHT22;7078;51.542;7.314;2023-04-05T04:00:07;0.70;99.90
14006;DHT22;7078;51.542;7.314;2023-04-05T04:02:49;0.70;99.90
14006;DHT22;7078;51.542;7.314;2023-04-05T04:05:16;0.60;99.90
14006;DHT22;7078;51.542;7.314;2023-04-05T04:07:42;0.60;99.90
14006;DHT22;7078;51.542;7.314;2023-04-05T04:10:10;0.60;99.90
14006;DHT22;7078;51.542;7.314;2023-04-05T04:12:36;0.60;99.90
14006;DHT22;7078;51.542;7.314;2023-04-05T04:15:02;0.60;99.90
14006;DHT22;7078;51.542;7.314;2023-04-05T04:17:28;0.50;99.90
14006;DHT22;7078;51.542;7.314;2023-04-05T04:19:55;0.60;99.90
14006;DHT22;7078;51.542;7.314;2023-04-05T04:22:21;0.50;99.90
14006;DHT22;7078;51.542;7.314;2023-04-05T04:24:48;0.50;99.90
14006;DHT22;7078;51.542;7.314;2023-04-05T04:27:15;0.40;99.90
14006;DHT22;7078;51.542;7.314;2023-04-05T04:29:41;0.40;99.90
14006;DHT22;7078;51.542;7.314;2023-04-05T04:32:14;0.40;99.90
14006;DHT22;7078;51.542;7.314;2023-04-05T04:34:43;0.40;99.90
14006;DHT22;7078;51.542;7.314;2023-04-05T04:37:14;0.50;99.90
14006;DHT22;7078;51.542;7.314;2023-04-05T04:39:46;0.50;99.90
14006;DHT22;7078;51.542;7.314;2023-04-05T04:42:16;0.40;99.90
14006;DHT22;7078;51.542;7.314;2023-04-05T04:44:47;0.40;99.90
14006;DHT22;7078;51.542;7.314;2023-04-05T04:47:13;0.40;99.90
14006;DHT22;7078;51.542;7.314;2023-04-05T04:49:41;0.40;99.90
14006;DHT22;7078;51.542;7.314;2023-04-05T04:52:07;0.50;99.90
14006;DHT22;7078;51.542;7.314;2023-04-05T04:54:34;0.30;99.90
14006;DHT22;7078;51.542;7.314;2023-04-05T04:57:01;0.40;99.90
14006;DHT22;7078;51.542;7.314;2023-04-05T04:59:27;0.40;99.90
14006;DHT22;7078;51.542;7.314;2023-04-05T05:01:52;0.40;99.90
14006;DHT22;7078;51.542;7.314;2023-04-05T05:04:18;0.40;99.90
14006;DHT22;7078;51.542;7.314;2023-04-05T05:06:43;0.40;99.90
14006;DHT22;7078;51.542;7.314;2023-04-05T05:09:09;0.50;99.90
14006;DHT22;7078;51.542;7.314;2023-04-05T05:11:35;0.50;99.90
14006;DHT22;7078;51.542;7.314;2023-04-05T05:14:00;0.50;99.90
14006;DHT22;7078;51.542;7.314;2023-04-05T05:16:26;0.50;99.90
14006;DHT22;7078;51.542;7.314;2023-04-05T05:18:53;0.50;99.90
14006;DHT22;7078;51.542;7.314;2023-04-05T05:21:18;0.50;99.90
14006;DHT22;7078;51.542;7.314;2023-04-05T05:23:44;0.50;99.90
14006;DHT22;7078;51.542;7.314;2023-04-05T05:26:11;0.60;99.90
14006;DHT22;7078;51.542;7.314;2023-04-05T05:28:37;0.60;99.90
14006;DHT22;7078;51.542;7.314;2023-04-05T05:31:04;0.60;99.90
14006;DHT22;7078;51.542;7.314;2023-04-05T05:33:30;0.70;99.90
14006;DHT22;7078;51.542;7.314;2023-04-05T05:35:55;0.70;99.90
14006;DHT22;7078;51.542;7.314;2023-04-05T05:38:21;0.80;99.90
14006;DHT22;7078;51.542;7.314;2023-04-05T05:40:47;0.80;99.90
14006;DHT22;7078;51.542;7.314;2023-04-05T05:43:13;0.90;99.90
14006;DHT22;7078;51.542;7.314;2023-04-05T05:45:40;1.00;99.90
14006;DHT22;7078;51.542;7.314;2023-04-05T05:48:05;1.00;99.90
14006;DHT22;7078;51.542;7.314;2023-04-05T05:50:31;1.00;99.90
14006;DHT22;7078;51.542;7.314;2023-04-05T05:52:58;1.10;99.90
14006;DHT22;7078;51.542;7.314;2023-04-05T05:55:23;1.20;99.90
14006;DHT22;7078;51.542;7.314;2023-04-05T05:57:49;1.20;99.90
14006;DHT22;7078;51.542;7.314;2023-04-05T06:00:15;1.30;99.90
14006;DHT22;7078;51.542;7.314;2023-04-05T06:02:40;1.40;99.90
14006;DHT22;7078;51.542;7.314;2023-04-05T06:05:06;1.40;99.90
14006;DHT22;7078;51.542;7.314;2023-04-05T06:07:36;1.50;99.90
14006;DHT22;7078;51.542;7.314;2023-04-05T06:10:03;1.50;99.90
14006;DHT22;7078;51.542;7.314;2023-04-05T06:12:28;1.60;99.90
14006;DHT22;7078;51.542;7.314;2023-04-05T06:14:54;1.80;99.90
14006;DHT22;7078;51.542;7.314;2023-04-05T06:17:20;1.80;99.90
14006;DHT22;7078;51.542;7.314;2023-04-05T06:19:45;1.90;99.90
14006;DHT22;7078;51.542;7.314;2023-04-05T06:22:11;2.00;99.90
14006;DHT22;7078;51.542;7.314;2023-04-05T06:24:36;2.20;99.90
14006;DHT22;7078;51.542;7.314;2023-04-05T06:27:02;2.30;99.90
14006;DHT22;7078;51.542;7.314;2023-04-05T06:29:27;2.40;99.90
14006;DHT22;7078;51.542;7.314;2023-04-05T06:31:53;2.40;99.90
14006;DHT22;7078;51.542;7.314;2023-04-05T06:34:19;2.50;99.90
14006;DHT22;7078;51.542;7.314;2023-04-05T06:36:45;2.60;99.90
14006;DHT22;7078;51.542;7.314;2023-04-05T06:39:11;2.80;99.90
14006;DHT22;7078;51.542;7.314;2023-04-05T06:41:37;2.90;99.90
14006;DHT22;7078;51.542;7.314;2023-04-05T06:44:03;3.00;99.90
14006;DHT22;7078;51.542;7.314;2023-04-05T06:46:28;3.10;99.90
14006;DHT22;7078;51.542;7.314;2023-04-05T06:48:54;3.30;99.90
14006;DHT22;7078;51.542;7.314;2023-04-05T06:51:20;3.40;99.90
14006;DHT22;7078;51.542;7.314;2023-04-05T06:53:45;3.50;99.90
14006;DHT22;7078;51.542;7.314;2023-04-05T06:56:11;3.70;99.90
14006;DHT22;7078;51.542;7.314;2023-04-05T06:58:37;3.80;99.90
14006;DHT22;7078;51.542;7.314;2023-04-05T07:01:03;4.00;99.90
14006;DHT22;7078;51.542;7.314;2023-04-05T07:03:29;4.10;99.90
14006;DHT22;7078;51.542;7.314;2023-04-05T07:05:57;4.20;99.90
14006;DHT22;7078;51.542;7.314;2023-04-05T07:08:24;4.40;99.90
14006;DHT22;7078;51.542;7.314;2023-04-05T07:10:50;4.50;99.90
14006;DHT22;7078;51.542;7.314;2023-04-05T07:13:17;4.60;99.90
14006;DHT22;7078;51.542;7.314;2023-04-05T07:15:43;4.60;99.90
14006;DHT22;7078;51.542;7.314;2023-04-05T07:18:09;4.70;99.90
14006;DHT22;7078;51.542;7.314;2023-04-05T07:20:35;4.90;99.90
14006;DHT22;7078;51.542;7.314;2023-04-05T07:23:00;5.00;99.90
14006;DHT22;7078;51.542;7.314;2023-04-05T07:25:26;5.10;99.90
14006;DHT22;7078;51.542;7.314;2023-04-05T07:27:53;5.20;99.90
14006;DHT22;7078;51.542;7.314;2023-04-05T07:30:18;5.40;99.90
14006;DHT22;7078;51.542;7.314;2023-04-05T07:32:44;5.50;99.90
14006;DHT22;7078;51.542;7.314;2023-04-05T07:35:10;5.60;99.90
14006;DHT22;7078;51.542;7.314;2023-04-05T07:37:35;5.80;97.50
14006;DHT22;7078;51.542;7.314;2023-04-05T07:40:01;5.90;95.00
14006;DHT22;7078;51.542;7.314;2023-04-05T07:42:27;6.00;95.60
14006;DHT22;7078;51.542;7.314;2023-04-05T07:44:53;6.10;94.30
14006;DHT22;7078;51.542;7.314;2023-04-05T07:47:19;6.20;92.70
14006;DHT22;7078;51.542;7.314;2023-04-05T07:49:44;6.30;93.00
14006;DHT22;7078;51.542;7.314;2023-04-05T07:52:10;6.70;99.90
14006;DHT22;7078;51.542;7.314;2023-04-05T07:54:36;6.90;99.90
14006;DHT22;7078;51.542;7.314;2023-04-05T07:57:09;7.10;99.70
14006;DHT22;7078;51.542;7.314;2023-04-05T07:59:40;7.40;96.50
14006;DHT22;7078;51.542;7.314;2023-04-05T08:02:05;7.50;93.90
14006;DHT22;7078;51.542;7.314;2023-04-05T08:04:31;7.70;90.60
14006;DHT22;7078;51.542;7.314;2023-04-05T08:06:56;7.70;89.30
14006;DHT22;7078;51.542;7.314;2023-04-05T08:09:22;7.70;87.20
14006;DHT22;7078;51.542;7.314;2023-04-05T08:11:47;7.70;89.20
14006;DHT22;7078;51.542;7.314;2023-04-05T08:14:13;7.70;83.70
14006;DHT22;7078;51.542;7.314;2023-04-05T08:16:38;7.70;84.10
14006;DHT22;7078;51.542;7.314;2023-04-05T08:19:04;7.60;82.50
14006;DHT22;7078;51.542;7.314;2023-04-05T08:21:29;7.50;82.70
14006;DHT22;7078;51.542;7.314;2023-04-05T08:23:55;7.40;83.90
14006;DHT22;7078;51.542;7.314;2023-04-05T08:26:20;7.50;84.40
14006;DHT22;7078;51.542;7.314;2023-04-05T08:28:46;7.50;83.60
14006;DHT22;7078;51.542;7.314;2023-04-05T08:31:11;7.60;81.90
14006;DHT22;7078;51.542;7.314;2023-04-05T08:33:37;7.70;79.20
14006;DHT22;7078;51.542;7.314;2023-04-05T08:36:07;7.90;78.20
14006;DHT22;7078;51.542;7.314;2023-04-05T08:38:33;7.60;77.60
14006;DHT22;7078;51.542;7.314;2023-04-05T08:41:17;7.60;77.60
14006;DHT22;7078;51.542;7.314;2023-04-05T08:46:21;7.70;77.30
14006;DHT22;7078;51.542;7.314;2023-04-05T08:48:47;7.80;76.00
14006;DHT22;7078;51.542;7.314;2023-04-05T08:51:20;7.90;77.40
14006;DHT22;7078;51.542;7.314;2023-04-05T08:53:46;8.00;74.50
14006;DHT22;7078;51.542;7.314;2023-04-05T08:56:15;8.10;75.40
14006;DHT22;7078;51.542;7.314;2023-04-05T08:58:56;8.10;74.80
14006;DHT22;7078;51.542;7.314;2023-04-05T09:01:24;8.20;74.80
14006;DHT22;7078;51.542;7.314;2023-04-05T09:03:52;8.20;74.60
14006;DHT22;7078;51.542;7.314;2023-04-05T09:06:18;8.30;72.70
14006;DHT22;7078;51.542;7.314;2023-04-05T09:08:45;8.40;72.70
14006;DHT22;7078;51.542;7.314;2023-04-05T09:11:11;8.40;72.00
14006;DHT22;7078;51.542;7.314;2023-04-05T09:13:36;8.40;72.20
14006;DHT22;7078;51.542;7.314;2023-04-05T09:16:02;8.50;72.20
14006;DHT22;7078;51.542;7.314;2023-04-05T09:18:28;8.60;70.70
14006;DHT22;7078;51.542;7.314;2023-04-05T09:21:04;8.60;70.10
14006;DHT22;7078;51.542;7.314;2023-04-05T09:23:30;8.60;69.90
14006;DHT22;7078;51.542;7.314;2023-04-05T09:25:56;8.60;69.40
14006;DHT22;7078;51.542;7.314;2023-04-05T09:28:21;8.70;69.40
14006;DHT22;7078;51.542;7.314;2023-04-05T09:30:47;8.80;69.80
14006;DHT22;7078;51.542;7.314;2023-04-05T09:33:17;8.90;68.40
14006;DHT22;7078;51.542;7.314;2023-04-05T09:35:43;8.90;67.60
14006;DHT22;7078;51.542;7.314;2023-04-05T09:38:09;8.90;67.70
14006;DHT22;7078;51.542;7.314;2023-04-05T09:40:45;8.90;65.90
14006;DHT22;7078;51.542;7.314;2023-04-05T09:43:12;8.90;66.20
14006;DHT22;7078;51.542;7.314;2023-04-05T09:45:41;9.00;64.70
14006;DHT22;7078;51.542;7.314;2023-04-05T09:48:07;9.00;64.60
14006;DHT22;7078;51.542;7.314;2023-04-05T09:50:34;9.10;66.50
14006;DHT22;7078;51.542;7.314;2023-04-05T09:53:08;9.20;66.10
14006;DHT22;7078;51.542;7.314;2023-04-05T09:55:34;9.20;64.50
14006;DHT22;7078;51.542;7.314;2023-04-05T09:58:01;9.30;63.80
14006;DHT22;7078;51.542;7.314;2023-04-05T10:00:28;9.20;63.80
14006;DHT22;7078;51.542;7.314;2023-04-05T10:02:54;9.20;64.30
14006;DHT22;7078;51.542;7.314;2023-04-05T10:05:24;9.30;65.10
14006;DHT22;7078;51.542;7.314;2023-04-05T10:07:51;9.30;64.70
14006;DHT22;7078;51.542;7.314;2023-04-05T10:10:17;9.40;62.90
14006;DHT22;7078;51.542;7.314;2023-04-05T10:12:44;9.60;64.00
14006;DHT22;7078;51.542;7.314;2023-04-05T10:15:11;9.60;62.60
14006;DHT22;7078;51.542;7.314;2023-04-05T10:17:45;9.50;62.00
14006;DHT22;7078;51.542;7.314;2023-04-05T10:20:14;9.40;62.90
14006;DHT22;7078;51.542;7.314;2023-04-05T10:28:34;9.60;60.10
14006;DHT22;7078;51.542;7.314;2023-04-05T10:33:52;9.70;60.40
14006;DHT22;7078;51.542;7.314;2023-04-05T10:36:41;9.80;59.80
14006;DHT22;7078;51.542;7.314;2023-04-05T10:39:27;9.90;59.80
14006;DHT22;7078;51.542;7.314;2023-04-05T10:41:59;9.90;58.90
14006;DHT22;7078;51.542;7.314;2023-04-05T10:44:25;9.90;61.20
14006;DHT22;7078;51.542;7.314;2023-04-05T10:46:53;9.90;61.10
14006;DHT22;7078;51.542;7.314;2023-04-05T10:49:24;9.90;59.90
14006;DHT22;7078;51.542;7.314;2023-04-05T10:51:53;9.90;59.10
14006;DHT22;7078;51.542;7.314;2023-04-05T10:54:20;9.90;58.70
14006;DHT22;7078;51.542;7.314;2023-04-05T10:56:47;9.80;59.90
14006;DHT22;7078;51.542;7.314;2023-04-05T10:59:13;9.80;60.20
14006;DHT22;7078;51.542;7.314;2023-04-05T11:01:40;9.80;59.00
14006;DHT22;7078;51.542;7.314;2023-04-05T11:04:16;9.90;58.80
14006;DHT22;7078;51.542;7.314;2023-04-05T11:06:42;10.10;58.70
14006;DHT22;7078;51.542;7.314;2023-04-05T11:09:19;10.20;58.20
14006;DHT22;7078;51.542;7.314;2023-04-05T11:11:49;10.40;57.80
14006;DHT22;7078;51.542;7.314;2023-04-05T11:14:23;10.50;57.10
14006;DHT22;7078;51.542;7.314;2023-04-05T11:16:53;10.70;57.30
14006;DHT22;7078;51.542;7.314;2023-04-05T11:22:12;11.10;55.00
14006;DHT22;7078;51.542;7.314;2023-04-05T11:24:52;11.10;54.90
14006;DHT22;7078;51.542;7.314;2023-04-05T11:27:32;11.10;55.10
14006;DHT22;7078;51.542;7.314;2023-04-05T11:29:59;11.20;57.40
14006;DHT22;7078;51.542;7.314;2023-04-05T11:32:39;11.30;55.00
14006;DHT22;7078;51.542;7.314;2023-04-05T11:35:07;11.10;54.30
14006;DHT22;7078;51.542;7.314;2023-04-05T11:37:52;11.00;55.10
14006;DHT22;7078;51.542;7.314;2023-04-05T11:40:28;11.10;55.30
14006;DHT22;7078;51.542;7.314;2023-04-05T11:43:10;11.10;54.80
14006;DHT22;7078;51.542;7.314;2023-04-05T11:45:38;11.10;55.80
14006;DHT22;7078;51.542;7.314;2023-04-05T11:48:07;11.10;54.30
14006;DHT22;7078;51.542;7.314;2023-04-05T11:50:35;11.10;54.60
14006;DHT22;7078;51.542;7.314;2023-04-05T11:55:37;10.90;55.80
14006;DHT22;7078;51.542;7.314;2023-04-05T11:58:14;11.10;55.40
14006;DHT22;7078;51.542;7.314;2023-04-05T12:00:41;11.00;54.20
14006;DHT22;7078;51.542;7.314;2023-04-05T12:03:11;11.10;53.30
14006;DHT22;7078;51.542;7.314;2023-04-05T12:05:53;11.20;53.90
14006;DHT22;7078;51.542;7.314;2023-04-05T12:08:19;11.30;54.90
14006;DHT22;7078;51.542;7.314;2023-04-05T12:10:55;11.40;53.00
14006;DHT22;7078;51.542;7.314;2023-04-05T12:13:28;11.50;52.10
14006;DHT22;7078;51.542;7.314;2023-04-05T12:15:55;11.50;52.90
14006;DHT22;7078;51.542;7.314;2023-04-05T12:18:24;11.50;52.90
14006;DHT22;7078;51.542;7.314;2023-04-05T12:20:50;11.50;53.70
14006;DHT22;7078;51.542;7.314;2023-04-05T12:23:16;11.60;52.50
14006;DHT22;7078;51.542;7.314;2023-04-05T12:25:45;11.50;54.10
14006;DHT22;7078;51.542;7.314;2023-04-05T12:28:11;11.60;53.30
14006;DHT22;7078;51.542;7.314;2023-04-05T12:30:48;11.60;52.40
14006;DHT22;7078;51.542;7.314;2023-04-05T12:33:14;11.60;52.10
14006;DHT22;7078;51.542;7.314;2023-04-05T12:35:40;11.70;52.40
14006;DHT22;7078;51.542;7.314;2023-04-05T12:38:06;11.60;51.80
14006;DHT22;7078;51.542;7.314;2023-04-05T12:40:36;11.60;52.00
14006;DHT22;7078;51.542;7.314;2023-04-05T12:43:03;11.60;51.80
14006;DHT22;7078;51.542;7.314;2023-04-05T12:45:29;11.60;52.00
14006;DHT22;7078;51.542;7.314;2023-04-05T12:47:58;11.70;52.30
14006;DHT22;7078;51.542;7.314;2023-04-05T12:50:30;11.80;51.70
14006;DHT22;7078;51.542;7.314;2023-04-05T12:53:05;11.90;50.90
14006;DHT22;7078;51.542;7.314;2023-04-05T12:55:32;11.90;50.30
14006;DHT22;7078;51.542;7.314;2023-04-05T12:58:03;12.10;50.80
14006;DHT22;7078;51.542;7.314;2023-04-05T13:00:29;12.10;50.10
14006;DHT22;7078;51.542;7.314;2023-04-05T13:02:56;12.10;49.40
14006;DHT22;7078;51.542;7.314;2023-04-05T13:05:24;12.30;49.40
14006;DHT22;7078;51.542;7.314;2023-04-05T13:07:51;12.30;48.90
14006;DHT22;7078;51.542;7.314;2023-04-05T13:10:21;12.30;48.80
14006;DHT22;7078;51.542;7.314;2023-04-05T13:12:47;12.40;48.60
14006;DHT22;7078;51.542;7.314;2023-04-05T13:15:14;12.30;48.20
14006;DHT22;7078;51.542;7.314;2023-04-05T13:17:44;12.30;47.80
14006;DHT22;7078;51.542;7.314;2023-04-05T13:20:10;12.30;48.40
14006;DHT22;7078;51.542;7.314;2023-04-05T13:22:36;12.50;49.80
14006;DHT22;7078;51.542;7.314;2023-04-05T13:25:02;12.50;48.70
14006;DHT22;7078;51.542;7.314;2023-04-05T13:27:28;12.60;48.60
14006;DHT22;7078;51.542;7.314;2023-04-05T13:29:54;12.60;48.20
14006;DHT22;7078;51.542;7.314;2023-04-05T13:32:19;12.70;48.60
14006;DHT22;7078;51.542;7.314;2023-04-05T13:34:45;12.50;48.40
14006;DHT22;7078;51.542;7.314;2023-04-05T13:37:10;12.60;48.40
14006;DHT22;7078;51.542;7.314;2023-04-05T13:39:36;12.70;47.70
14006;DHT22;7078;51.542;7.314;2023-04-05T13:42:02;12.70;49.80
14006;DHT22;7078;51.542;7.314;2023-04-05T13:44:27;12.90;49.10
14006;DHT22;7078;51.542;7.314;2023-04-05T13:46:53;13.00;48.60
14006;DHT22;7078;51.542;7.314;2023-04-05T13:49:18;13.00;47.20
14006;DHT22;7078;51.542;7.314;2023-04-05T13:51:44;12.90;46.60
14006;DHT22;7078;51.542;7.314;2023-04-05T13:54:09;12.80;48.60
14006;DHT22;7078;51.542;7.314;2023-04-05T13:56:39;12.80;49.50
14006;DHT22;7078;51.542;7.314;2023-04-05T13:59:04;12.90;48.90
14006;DHT22;7078;51.542;7.314;2023-04-05T14:01:32;12.80;49.50
14006;DHT22;7078;51.542;7.314;2023-04-05T14:03:57;12.70;48.50
14006;DHT22;7078;51.542;7.314;2023-04-05T14:06:23;12.70;49.80
14006;DHT22;7078;51.542;7.314;2023-04-05T14:08:48;12.70;49.30
14006;DHT22;7078;51.542;7.314;2023-04-05T14:11:22;12.70;49.40
14006;DHT22;7078;51.542;7.314;2023-04-05T14:13:49;12.70;49.20
14006;DHT22;7078;51.542;7.314;2023-04-05T14:16:15;12.60;48.70
14006;DHT22;7078;51.542;7.314;2023-04-05T14:18:40;12.70;49.70
14006;DHT22;7078;51.542;7.314;2023-04-05T14:21:06;12.70;50.10
14006;DHT22;7078;51.542;7.314;2023-04-05T14:23:31;12.90;49.30
14006;DHT22;7078;51.542;7.314;2023-04-05T14:25:57;13.10;50.00
14006;DHT22;7078;51.542;7.314;2023-04-05T14:28:23;13.20;49.10
14006;DHT22;7078;51.542;7.314;2023-04-05T14:30:48;13.30;49.00
14006;DHT22;7078;51.542;7.314;2023-04-05T14:33:14;13.50;48.40
14006;DHT22;7078;51.542;7.314;2023-04-05T14:35:41;13.40;49.00
14006;DHT22;7078;51.542;7.314;2023-04-05T14:38:06;13.30;48.60
14006;DHT22;7078;51.542;7.314;2023-04-05T14:40:32;13.20;49.20
14006;DHT22;7078;51.542;7.314;2023-04-05T14:42:57;13.20;49.40
14006;DHT22;7078;51.542;7.314;2023-04-05T14:45:23;13.10;48.70
14006;DHT22;7078;51.542;7.314;2023-04-05T14:47:51;13.00;49.10
14006;DHT22;7078;51.542;7.314;2023-04-05T14:50:17;12.90;48.60
14006;DHT22;7078;51.542;7.314;2023-04-05T14:52:43;13.00;49.10
14006;DHT22;7078;51.542;7.314;2023-04-05T14:55:10;13.00;49.50
14006;DHT22;7078;51.542;7.314;2023-04-05T14:57:38;12.80;49.00
14006;DHT22;7078;51.542;7.314;2023-04-05T15:00:04;12.90;49.30
14006;DHT22;7078;51.542;7.314;2023-04-05T15:02:30;13.00;48.90
14006;DHT22;7078;51.542;7.314;2023-04-05T15:04:56;13.00;48.70
14006;DHT22;7078;51.542;7.314;2023-04-05T15:07:27;13.00;48.80
14006;DHT22;7078;51.542;7.314;2023-04-05T15:09:53;13.10;49.60
14006;DHT22;7078;51.542;7.314;2023-04-05T15:12:18;13.10;49.10
14006;DHT22;7078;51.542;7.314;2023-04-05T15:14:44;13.20;48.80
14006;DHT22;7078;51.542;7.314;2023-04-05T15:17:18;13.30;49.50
14006;DHT22;7078;51.542;7.314;2023-04-05T15:19:43;13.20;49.90
14006;DHT22;7078;51.542;7.314;2023-04-05T15:22:09;13.10;49.70
14006;DHT22;7078;51.542;7.314;2023-04-05T15:24:38;13.10;50.00
14006;DHT22;7078;51.542;7.314;2023-04-05T15:27:06;13.10;50.20
14006;DHT22;7078;51.542;7.314;2023-04-05T15:29:32;13.40;50.00
14006;DHT22;7078;51.542;7.314;2023-04-05T15:31:58;13.50;48.70
14006;DHT22;7078;51.542;7.314;2023-04-05T15:34:25;13.60;48.80
14006;DHT22;7078;51.542;7.314;2023-04-05T15:36:51;13.80;48.90
14006;DHT22;7078;51.542;7.314;2023-04-05T15:39:18;14.00;48.30
14006;DHT22;7078;51.542;7.314;2023-04-05T15:41:44;14.20;47.60
14006;DHT22;7078;51.542;7.314;2023-04-05T15:44:10;14.30;47.70
14006;DHT22;7078;51.542;7.314;2023-04-05T15:46:36;14.40;47.00
14006;DHT22;7078;51.542;7.314;2023-04-05T15:49:01;14.50;48.40
14006;DHT22;7078;51.542;7.314;2023-04-05T15:51:27;14.50;46.00
14006;DHT22;7078;51.542;7.314;2023-04-05T15:53:52;14.70;45.90
14006;DHT22;7078;51.542;7.314;2023-04-05T15:56:18;15.20;45.40
14006;DHT22;7078;51.542;7.314;2023-04-05T15:58:44;15.10;45.10
14006;DHT22;7078;51.542;7.314;2023-04-05T16:01:09;15.50;45.20
14006;DHT22;7078;51.542;7.314;2023-04-05T16:03:35;15.60;44.80
14006;DHT22;7078;51.542;7.314;2023-04-05T16:06:01;15.70;44.30
14006;DHT22;7078;51.542;7.314;2023-04-05T16:08:26;15.80;44.20
14006;DHT22;7078;51.542;7.314;2023-04-05T16:10:52;15.80;45.80
14006;DHT22;7078;51.542;7.314;2023-04-05T16:13:18;15.80;44.30
14006;DHT22;7078;51.542;7.314;2023-04-05T16:15:43;15.70;44.20
14006;DHT22;7078;51.542;7.314;2023-04-05T16:18:09;15.70;44.70
14006;DHT22;7078;51.542;7.314;2023-04-05T16:20:38;15.60;44.10
14006;DHT22;7078;51.542;7.314;2023-04-05T16:23:04;15.70;43.80
14006;DHT22;7078;51.542;7.314;2023-04-05T16:25:29;15.70;44.40
14006;DHT22;7078;51.542;7.314;2023-04-05T16:27:55;15.80;44.60